sensor_id;sensor_type;location;lat;lon;timestamp;P1;durP1;ratioP1;P2;durP2;ratioP2
12818;SDS011;6474;53.474;9.894;2023-08-12T00:01:03;1.85;;;1.85;;
12818;SDS011;6474;53.474;9.894;2023-08-12T00:03:31;2.00;;;1.90;;
12818;SDS011;6474;53.474;9.894;2023-08-12T00:06:00;1.95;;;1.95;;
12818;SDS011;6474;53.474;9.894;2023-08-12T00:08:31;1.98;;;1.88;;
12818;SDS011;6474;53.474;9.894;2023-08-12T00:10:59;2.00;;;2.00;;
12818;SDS011;6474;53.474;9.894;2023-08-12T00:13:27;1.73;;;1.73;;
12818;SDS011;6474;53.474;9.894;2023-08-12T00:15:55;1.80;;;1.80;;
12818;SDS011;6474;53.474;9.894;2023-08-12T00:18:24;2.40;;;2.30;;
12818;SDS011;6474;53.474;9.894;2023-08-12T00:20:53;1.80;;;1.80;;
12818;SDS011;6474;53.474;9.894;2023-08-12T00:23:21;3.08;;;1.92;;
12818;SDS011;6474;53.474;9.894;2023-08-12T00:25:49;2.53;;;2.25;;
12818;SDS011;6474;53.474;9.894;2023-08-12T00:28:17;2.03;;;2.03;;
12818;SDS011;6474;53.474;9.894;2023-08-12T00:30:48;2.45;;;2.35;;
12818;SDS011;6474;53.474;9.894;2023-08-12T00:33:16;1.70;;;1.60;;
12818;SDS011;6474;53.474;9.894;2023-08-12T00:35:46;3.90;;;1.67;;
12818;SDS011;6474;53.474;9.894;2023-08-12T00:38:14;1.98;;;1.98;;
12818;SDS011;6474;53.474;9.894;2023-08-12T00:40:42;1.67;;;1.67;;
12818;SDS011;6474;53.474;9.894;2023-08-12T00:43:10;2.17;;;2.17;;
12818;SDS011;6474;53.474;9.894;2023-08-12T00:45:37;1.90;;;1.90;;
12818;SDS011;6474;53.474;9.894;2023-08-12T00:48:06;1.75;;;1.67;;
12818;SDS011;6474;53.474;9.894;2023-08-12T00:50:39;1.92;;;1.92;;
12818;SDS011;6474;53.474;9.894;2023-08-12T00:53:09;7.53;;;2.05;;
12818;SDS011;6474;53.474;9.894;2023-08-12T00:55:40;1.85;;;1.85;;
12818;SDS011;6474;53.474;9.894;2023-08-12T00:58:08;2.17;;;1.95;;
12818;SDS011;6474;53.474;9.894;2023-08-12T01:00:36;2.20;;;2.10;;
12818;SDS011;6474;53.474;9.894;2023-08-12T01:03:05;1.77;;;1.77;;
12818;SDS011;6474;53.474;9.894;2023-08-12T01:05:33;1.90;;;1.90;;
12818;SDS011;6474;53.474;9.894;2023-08-12T01:08:05;1.48;;;1.48;;
12818;SDS011;6474;53.474;9.894;2023-08-12T01:10:34;2.10;;;2.00;;
12818;SDS011;6474;53.474;9.894;2023-08-12T01:13:07;2.28;;;2.17;;
12818;SDS011;6474;53.474;9.894;2023-08-12T01:15:39;1.98;;;1.92;;
12818;SDS011;6474;53.474;9.894;2023-08-12T01:18:11;2.13;;;2.03;;
12818;SDS011;6474;53.474;9.894;2023-08-12T01:20:40;2.33;;;2.22;;
12818;SDS011;6474;53.474;9.894;2023-08-12T01:23:11;1.80;;;1.80;;
12818;SDS011;6474;53.474;9.894;2023-08-12T01:25:41;2.10;;;2.00;;
12818;SDS011;6474;53.474;9.894;2023-08-12T01:28:09;1.92;;;1.83;;
12818;SDS011;6474;53.474;9.894;2023-08-12T01:30:39;1.70;;;1.70;;
12818;SDS011;6474;53.474;9.894;2023-08-12T01:33:15;2.13;;;2.10;;
12818;SDS011;6474;53.474;9.894;2023-08-12T01:35:47;2.10;;;2.00;;
12818;SDS011;6474;53.474;9.894;2023-08-12T01:38:22;2.13;;;2.03;;
12818;SDS011;6474;53.474;9.894;2023-08-12T01:40:53;2.10;;;2.00;;
12818;SDS011;6474;53.474;9.894;2023-08-12T01:43:22;1.83;;;1.83;;
12818;SDS011;6474;53.474;9.894;2023-08-12T01:45:50;1.90;;;1.90;;
12818;SDS011;6474;53.474;9.894;2023-08-12T01:48:18;1.48;;;1.48;;
12818;SDS011;6474;53.474;9.894;2023-08-12T01:50:49;2.20;;;2.10;;
12818;SDS011;6474;53.474;9.894;2023-08-12T01:53:17;1.73;;;1.73;;
12818;SDS011;6474;53.474;9.894;2023-08-12T01:55:47;2.00;;;2.00;;
12818;SDS011;6474;53.474;9.894;2023-08-12T01:58:16;1.88;;;1.77;;
12818;SDS011;6474;53.474;9.894;2023-08-12T02:00:44;1.77;;;1.77;;
12818;SDS011;6474;53.474;9.894;2023-08-12T02:03:12;2.10;;;2.00;;
12818;SDS011;6474;53.474;9.894;2023-08-12T02:05:40;1.80;;;1.73;;
12818;SDS011;6474;53.474;9.894;2023-08-12T02:08:08;1.67;;;1.67;;
12818;SDS011;6474;53.474;9.894;2023-08-12T02:10:36;1.80;;;1.80;;
12818;SDS011;6474;53.474;9.894;2023-08-12T02:13:05;1.80;;;1.80;;
12818;SDS011;6474;53.474;9.894;2023-08-12T02:15:33;3.22;;;1.80;;
12818;SDS011;6474;53.474;9.894;2023-08-12T02:18:01;1.55;;;1.55;;
12818;SDS011;6474;53.474;9.894;2023-08-12T02:20:29;1.33;;;1.33;;
12818;SDS011;6474;53.474;9.894;2023-08-12T02:22:57;1.92;;;1.83;;
12818;SDS011;6474;53.474;9.894;2023-08-12T02:25:25;1.45;;;1.45;;
12818;SDS011;6474;53.474;9.894;2023-08-12T02:27:53;2.03;;;1.92;;
12818;SDS011;6474;53.474;9.894;2023-08-12T02:30:22;1.70;;;1.70;;
12818;SDS011;6474;53.474;9.894;2023-08-12T02:32:50;1.65;;;1.65;;
12818;SDS011;6474;53.474;9.894;2023-08-12T02:35:18;1.50;;;1.50;;
12818;SDS011;6474;53.474;9.894;2023-08-12T02:37:47;1.60;;;1.55;;
12818;SDS011;6474;53.474;9.894;2023-08-12T02:40:15;1.95;;;1.95;;
12818;SDS011;6474;53.474;9.894;2023-08-12T02:42:43;3.50;;;2.28;;
12818;SDS011;6474;53.474;9.894;2023-08-12T02:45:11;1.50;;;1.45;;
12818;SDS011;6474;53.474;9.894;2023-08-12T02:47:41;1.58;;;1.58;;
12818;SDS011;6474;53.474;9.894;2023-08-12T02:50:09;1.90;;;1.80;;
12818;SDS011;6474;53.474;9.894;2023-08-12T02:52:37;1.98;;;1.80;;
12818;SDS011;6474;53.474;9.894;2023-08-12T02:55:05;2.33;;;2.20;;
12818;SDS011;6474;53.474;9.894;2023-08-12T02:57:33;2.03;;;2.00;;
12818;SDS011;6474;53.474;9.894;2023-08-12T03:00:02;2.17;;;2.08;;
12818;SDS011;6474;53.474;9.894;2023-08-12T03:02:31;2.20;;;2.10;;
12818;SDS011;6474;53.474;9.894;2023-08-12T03:05:01;1.75;;;1.65;;
12818;SDS011;6474;53.474;9.894;2023-08-12T03:07:29;2.03;;;1.92;;
12818;SDS011;6474;53.474;9.894;2023-08-12T03:09:58;2.83;;;2.10;;
12818;SDS011;6474;53.474;9.894;2023-08-12T03:12:26;1.75;;;1.75;;
12818;SDS011;6474;53.474;9.894;2023-08-12T03:14:54;1.95;;;1.88;;
12818;SDS011;6474;53.474;9.894;2023-08-12T03:17:22;1.77;;;1.77;;
12818;SDS011;6474;53.474;9.894;2023-08-12T03:19:50;1.58;;;1.58;;
12818;SDS011;6474;53.474;9.894;2023-08-12T03:22:19;1.67;;;1.65;;
12818;SDS011;6474;53.474;9.894;2023-08-12T03:24:48;1.58;;;1.58;;
12818;SDS011;6474;53.474;9.894;2023-08-12T03:27:16;2.10;;;2.10;;
12818;SDS011;6474;53.474;9.894;2023-08-12T03:29:44;1.55;;;1.55;;
12818;SDS011;6474;53.474;9.894;2023-08-12T03:32:12;2.70;;;1.55;;
12818;SDS011;6474;53.474;9.894;2023-08-12T03:34:40;1.95;;;1.85;;
12818;SDS011;6474;53.474;9.894;2023-08-12T03:37:08;1.73;;;1.73;;
12818;SDS011;6474;53.474;9.894;2023-08-12T03:39:38;1.60;;;1.60;;
12818;SDS011;6474;53.474;9.894;2023-08-12T03:42:06;1.80;;;1.80;;
12818;SDS011;6474;53.474;9.894;2023-08-12T03:44:34;1.90;;;1.80;;
12818;SDS011;6474;53.474;9.894;2023-08-12T03:47:02;4.78;;;1.80;;
12818;SDS011;6474;53.474;9.894;2023-08-12T03:49:30;1.83;;;1.83;;
12818;SDS011;6474;53.474;9.894;2023-08-12T03:51:58;1.77;;;1.77;;
12818;SDS011;6474;53.474;9.894;2023-08-12T03:54:25;7.55;;;2.30;;
12818;SDS011;6474;53.474;9.894;2023-08-12T03:56:55;1.92;;;1.83;;
12818;SDS011;6474;53.474;9.894;2023-08-12T03:59:23;1.48;;;1.48;;
12818;SDS011;6474;53.474;9.894;2023-08-12T04:01:51;1.80;;;1.75;;
12818;SDS011;6474;53.474;9.894;2023-08-12T04:04:19;2.08;;;2.05;;
12818;SDS011;6474;53.474;9.894;2023-08-12T04:06:47;1.63;;;1.60;;
12818;SDS011;6474;53.474;9.894;2023-08-12T04:09:17;6.72;;;1.75;;
12818;SDS011;6474;53.474;9.894;2023-08-12T04:11:45;1.52;;;1.52;;
12818;SDS011;6474;53.474;9.894;2023-08-12T04:14:15;1.60;;;1.60;;
12818;SDS011;6474;53.474;9.894;2023-08-12T04:16:43;2.92;;;2.25;;
12818;SDS011;6474;53.474;9.894;2023-08-12T04:19:11;1.80;;;1.80;;
12818;SDS011;6474;53.474;9.894;2023-08-12T04:21:39;1.92;;;1.73;;
12818;SDS011;6474;53.474;9.894;2023-08-12T04:24:08;1.50;;;1.50;;
12818;SDS011;6474;53.474;9.894;2023-08-12T04:26:36;1.80;;;1.70;;
12818;SDS011;6474;53.474;9.894;2023-08-12T04:29:03;1.70;;;1.70;;
12818;SDS011;6474;53.474;9.894;2023-08-12T04:31:33;1.75;;;1.70;;
12818;SDS011;6474;53.474;9.894;2023-08-12T04:34:01;1.52;;;1.52;;
12818;SDS011;6474;53.474;9.894;2023-08-12T04:36:30;1.48;;;1.48;;
12818;SDS011;6474;53.474;9.894;2023-08-12T04:38:58;1.50;;;1.50;;
12818;SDS011;6474;53.474;9.894;2023-08-12T04:41:26;2.05;;;2.05;;
12818;SDS011;6474;53.474;9.894;2023-08-12T04:43:54;1.63;;;1.63;;
12818;SDS011;6474;53.474;9.894;2023-08-12T04:46:22;1.90;;;1.90;;
12818;SDS011;6474;53.474;9.894;2023-08-12T04:48:51;1.75;;;1.65;;
12818;SDS011;6474;53.474;9.894;2023-08-12T04:51:19;1.73;;;1.73;;
12818;SDS011;6474;53.474;9.894;2023-08-12T04:53:47;1.92;;;1.83;;
12818;SDS011;6474;53.474;9.894;2023-08-12T04:56:15;2.00;;;1.85;;
12818;SDS011;6474;53.474;9.894;2023-08-12T04:58:43;2.17;;;2.03;;
12818;SDS011;6474;53.474;9.894;2023-08-12T05:01:11;1.90;;;1.90;;
12818;SDS011;6474;53.474;9.894;2023-08-12T05:03:39;2.65;;;2.03;;
12818;SDS011;6474;53.474;9.894;2023-08-12T05:06:08;2.28;;;2.08;;
12818;SDS011;6474;53.474;9.894;2023-08-12T05:08:36;2.03;;;1.92;;
12818;SDS011;6474;53.474;9.894;2023-08-12T05:11:04;1.90;;;1.90;;
12818;SDS011;6474;53.474;9.894;2023-08-12T05:13:32;1.75;;;1.70;;
12818;SDS011;6474;53.474;9.894;2023-08-12T05:15:59;2.40;;;2.10;;
12818;SDS011;6474;53.474;9.894;2023-08-12T05:18:27;1.88;;;1.88;;
12818;SDS011;6474;53.474;9.894;2023-08-12T05:20:55;1.92;;;1.92;;
12818;SDS011;6474;53.474;9.894;2023-08-12T05:23:25;1.80;;;1.80;;
12818;SDS011;6474;53.474;9.894;2023-08-12T05:25:53;1.75;;;1.75;;
12818;SDS011;6474;53.474;9.894;2023-08-12T05:28:21;2.30;;;2.20;;
12818;SDS011;6474;53.474;9.894;2023-08-12T05:30:49;2.00;;;1.90;;
12818;SDS011;6474;53.474;9.894;2023-08-12T05:33:16;2.22;;;2.13;;
12818;SDS011;6474;53.474;9.894;2023-08-12T05:35:46;1.95;;;1.95;;
12818;SDS011;6474;53.474;9.894;2023-08-12T05:38:14;3.30;;;3.10;;
12818;SDS011;6474;53.474;9.894;2023-08-12T05:40:43;2.47;;;2.38;;
12818;SDS011;6474;53.474;9.894;2023-08-12T05:43:11;2.47;;;2.38;;
12818;SDS011;6474;53.474;9.894;2023-08-12T05:45:39;2.55;;;2.45;;
12818;SDS011;6474;53.474;9.894;2023-08-12T05:48:07;2.63;;;2.53;;
12818;SDS011;6474;53.474;9.894;2023-08-12T05:50:35;3.10;;;2.90;;
12818;SDS011;6474;53.474;9.894;2023-08-12T05:53:03;3.13;;;3.03;;
12818;SDS011;6474;53.474;9.894;2023-08-12T05:55:32;2.88;;;2.80;;
12818;SDS011;6474;53.474;9.894;2023-08-12T05:58:02;2.85;;;2.75;;
12818;SDS011;6474;53.474;9.894;2023-08-12T06:00:31;2.97;;;2.88;;
12818;SDS011;6474;53.474;9.894;2023-08-12T06:02:58;3.35;;;3.05;;
12818;SDS011;6474;53.474;9.894;2023-08-12T06:05:26;3.08;;;2.88;;
12818;SDS011;6474;53.474;9.894;2023-08-12T06:07:54;3.15;;;3.05;;
12818;SDS011;6474;53.474;9.894;2023-08-12T06:10:22;4.55;;;4.25;;
12818;SDS011;6474;53.474;9.894;2023-08-12T06:12:50;3.47;;;3.30;;
12818;SDS011;6474;53.474;9.894;2023-08-12T06:15:19;7.97;;;3.90;;
12818;SDS011;6474;53.474;9.894;2023-08-12T06:17:47;3.20;;;3.10;;
12818;SDS011;6474;53.474;9.894;2023-08-12T06:20:15;3.28;;;3.10;;
12818;SDS011;6474;53.474;9.894;2023-08-12T06:22:43;4.13;;;3.92;;
12818;SDS011;6474;53.474;9.894;2023-08-12T06:25:11;3.72;;;3.38;;
12818;SDS011;6474;53.474;9.894;2023-08-12T06:27:39;3.97;;;3.75;;
12818;SDS011;6474;53.474;9.894;2023-08-12T06:30:07;4.68;;;4.38;;
12818;SDS011;6474;53.474;9.894;2023-08-12T06:32:37;4.43;;;4.13;;
12818;SDS011;6474;53.474;9.894;2023-08-12T06:35:06;4.40;;;4.00;;
12818;SDS011;6474;53.474;9.894;2023-08-12T06:37:34;6.03;;;4.00;;
12818;SDS011;6474;53.474;9.894;2023-08-12T06:40:03;4.15;;;3.75;;
12818;SDS011;6474;53.474;9.894;2023-08-12T06:42:31;4.50;;;4.20;;
12818;SDS011;6474;53.474;9.894;2023-08-12T06:44:59;4.80;;;4.40;;
12818;SDS011;6474;53.474;9.894;2023-08-12T06:47:30;5.25;;;4.78;;
12818;SDS011;6474;53.474;9.894;2023-08-12T06:49:59;3.40;;;3.28;;
12818;SDS011;6474;53.474;9.894;2023-08-12T06:52:28;4.63;;;4.20;;
12818;SDS011;6474;53.474;9.894;2023-08-12T06:54:56;4.13;;;3.83;;
12818;SDS011;6474;53.474;9.894;2023-08-12T06:57:23;4.55;;;4.25;;
12818;SDS011;6474;53.474;9.894;2023-08-12T06:59:51;5.38;;;4.88;;
12818;SDS011;6474;53.474;9.894;2023-08-12T07:02:19;5.63;;;5.03;;
12818;SDS011;6474;53.474;9.894;2023-08-12T07:04:47;4.93;;;4.63;;
12818;SDS011;6474;53.474;9.894;2023-08-12T07:07:16;4.88;;;4.47;;
12818;SDS011;6474;53.474;9.894;2023-08-12T07:09:44;5.70;;;4.93;;
12818;SDS011;6474;53.474;9.894;2023-08-12T07:12:12;5.47;;;5.07;;
12818;SDS011;6474;53.474;9.894;2023-08-12T07:14:40;4.63;;;4.32;;
12818;SDS011;6474;53.474;9.894;2023-08-12T07:17:08;5.30;;;4.82;;
12818;SDS011;6474;53.474;9.894;2023-08-12T07:19:36;4.95;;;4.65;;
12818;SDS011;6474;53.474;9.894;2023-08-12T07:22:03;6.32;;;5.25;;
12818;SDS011;6474;53.474;9.894;2023-08-12T07:24:33;5.07;;;4.60;;
12818;SDS011;6474;53.474;9.894;2023-08-12T07:27:01;5.78;;;4.68;;
12818;SDS011;6474;53.474;9.894;2023-08-12T07:29:32;4.88;;;4.50;;
12818;SDS011;6474;53.474;9.894;2023-08-12T07:32:00;5.35;;;4.85;;
12818;SDS011;6474;53.474;9.894;2023-08-12T07:34:28;4.88;;;4.50;;
12818;SDS011;6474;53.474;9.894;2023-08-12T07:36:57;4.68;;;4.38;;
12818;SDS011;6474;53.474;9.894;2023-08-12T07:39:25;4.45;;;4.22;;
12818;SDS011;6474;53.474;9.894;2023-08-12T07:41:54;4.80;;;4.50;;
12818;SDS011;6474;53.474;9.894;2023-08-12T07:44:22;5.82;;;4.80;;
12818;SDS011;6474;53.474;9.894;2023-08-12T07:46:50;4.07;;;3.88;;
12818;SDS011;6474;53.474;9.894;2023-08-12T07:49:18;5.07;;;4.78;;
12818;SDS011;6474;53.474;9.894;2023-08-12T07:51:46;6.78;;;4.32;;
12818;SDS011;6474;53.474;9.894;2023-08-12T07:54:14;4.55;;;4.25;;
12818;SDS011;6474;53.474;9.894;2023-08-12T07:56:42;4.50;;;4.20;;
12818;SDS011;6474;53.474;9.894;2023-08-12T07:59:11;3.90;;;3.63;;
12818;SDS011;6474;53.474;9.894;2023-08-12T08:01:39;4.65;;;4.35;;
12818;SDS011;6474;53.474;9.894;2023-08-12T08:04:07;4.40;;;4.05;;
12818;SDS011;6474;53.474;9.894;2023-08-12T08:06:35;4.57;;;4.22;;
12818;SDS011;6474;53.474;9.894;2023-08-12T08:09:03;4.20;;;3.80;;
12818;SDS011;6474;53.474;9.894;2023-08-12T08:11:31;3.83;;;3.63;;
12818;SDS011;6474;53.474;9.894;2023-08-12T08:14:00;4.28;;;3.53;;
12818;SDS011;6474;53.474;9.894;2023-08-12T08:16:29;4.10;;;3.80;;
12818;SDS011;6474;53.474;9.894;2023-08-12T08:18:57;4.20;;;3.80;;
12818;SDS011;6474;53.474;9.894;2023-08-12T08:21:25;4.03;;;3.72;;
12818;SDS011;6474;53.474;9.894;2023-08-12T08:23:53;3.83;;;3.60;;
12818;SDS011;6474;53.474;9.894;2023-08-12T08:26:21;4.28;;;3.95;;
12818;SDS011;6474;53.474;9.894;2023-08-12T08:28:49;4.18;;;3.88;;
12818;SDS011;6474;53.474;9.894;2023-08-12T08:31:17;3.20;;;3.05;;
12818;SDS011;6474;53.474;9.894;2023-08-12T08:33:46;3.40;;;3.20;;
12818;SDS011;6474;53.474;9.894;2023-08-12T08:36:15;5.05;;;3.50;;
12818;SDS011;6474;53.474;9.894;2023-08-12T08:38:44;3.72;;;3.42;;
12818;SDS011;6474;53.474;9.894;2023-08-12T08:41:12;2.63;;;2.53;;
12818;SDS011;6474;53.474;9.894;2023-08-12T08:43:41;2.80;;;2.60;;
12818;SDS011;6474;53.474;9.894;2023-08-12T08:46:11;2.50;;;2.40;;
12818;SDS011;6474;53.474;9.894;2023-08-12T08:48:43;1.90;;;1.80;;
12818;SDS011;6474;53.474;9.894;2023-08-12T08:51:12;2.97;;;2.80;;
12818;SDS011;6474;53.474;9.894;2023-08-12T08:53:40;3.03;;;2.83;;
12818;SDS011;6474;53.474;9.894;2023-08-12T08:56:10;2.83;;;2.63;;
12818;SDS011;6474;53.474;9.894;2023-08-12T08:58:42;2.85;;;2.65;;
12818;SDS011;6474;53.474;9.894;2023-08-12T09:01:11;2.58;;;2.47;;
12818;SDS011;6474;53.474;9.894;2023-08-12T09:03:41;2.83;;;2.67;;
12818;SDS011;6474;53.474;9.894;2023-08-12T09:06:10;4.55;;;2.60;;
12818;SDS011;6474;53.474;9.894;2023-08-12T09:08:40;2.63;;;2.53;;
12818;SDS011;6474;53.474;9.894;2023-08-12T09:11:10;3.13;;;2.92;;
12818;SDS011;6474;53.474;9.894;2023-08-12T09:13:42;2.60;;;2.50;;
12818;SDS011;6474;53.474;9.894;2023-08-12T09:16:10;2.72;;;2.53;;
12818;SDS011;6474;53.474;9.894;2023-08-12T09:18:39;2.33;;;2.22;;
12818;SDS011;6474;53.474;9.894;2023-08-12T09:21:09;2.85;;;2.65;;
12818;SDS011;6474;53.474;9.894;2023-08-12T09:23:39;3.03;;;2.83;;
12818;SDS011;6474;53.474;9.894;2023-08-12T09:26:10;2.30;;;2.20;;
12818;SDS011;6474;53.474;9.894;2023-08-12T09:28:41;2.97;;;2.67;;
12818;SDS011;6474;53.474;9.894;2023-08-12T09:31:11;3.00;;;2.90;;
12818;SDS011;6474;53.474;9.894;2023-08-12T09:33:50;2.58;;;2.45;;
12818;SDS011;6474;53.474;9.894;2023-08-12T09:36:19;2.88;;;2.50;;
12818;SDS011;6474;53.474;9.894;2023-08-12T09:38:49;2.63;;;2.45;;
12818;SDS011;6474;53.474;9.894;2023-08-12T09:41:19;3.00;;;2.80;;
12818;SDS011;6474;53.474;9.894;2023-08-12T09:43:50;2.75;;;2.65;;
12818;SDS011;6474;53.474;9.894;2023-08-12T09:46:20;2.85;;;2.75;;
12818;SDS011;6474;53.474;9.894;2023-08-12T09:48:49;2.70;;;2.60;;
12818;SDS011;6474;53.474;9.894;2023-08-12T09:51:18;2.88;;;2.67;;
12818;SDS011;6474;53.474;9.894;2023-08-12T09:53:48;2.65;;;2.55;;
12818;SDS011;6474;53.474;9.894;2023-08-12T09:56:19;3.00;;;2.90;;
12818;SDS011;6474;53.474;9.894;2023-08-12T09:58:49;3.15;;;2.95;;
12818;SDS011;6474;53.474;9.894;2023-08-12T10:01:20;2.85;;;2.75;;
12818;SDS011;6474;53.474;9.894;2023-08-12T10:03:48;2.67;;;2.58;;
12818;SDS011;6474;53.474;9.894;2023-08-12T10:06:18;2.70;;;2.50;;
12818;SDS011;6474;53.474;9.894;2023-08-12T10:08:46;2.85;;;2.60;;
12818;SDS011;6474;53.474;9.894;2023-08-12T10:11:16;2.38;;;2.28;;
12818;SDS011;6474;53.474;9.894;2023-08-12T10:13:45;2.28;;;2.17;;
12818;SDS011;6474;53.474;9.894;2023-08-12T10:16:14;2.08;;;2.08;;
12818;SDS011;6474;53.474;9.894;2023-08-12T10:18:44;2.63;;;2.53;;
12818;SDS011;6474;53.474;9.894;2023-08-12T10:21:13;2.42;;;2.25;;
12818;SDS011;6474;53.474;9.894;2023-08-12T10:23:42;2.42;;;2.22;;
12818;SDS011;6474;53.474;9.894;2023-08-12T10:26:13;1.75;;;1.73;;
12818;SDS011;6474;53.474;9.894;2023-08-12T10:28:44;4.93;;;2.30;;
12818;SDS011;6474;53.474;9.894;2023-08-12T10:31:12;2.00;;;2.00;;
12818;SDS011;6474;53.474;9.894;2023-08-12T10:33:40;2.30;;;2.20;;
12818;SDS011;6474;53.474;9.894;2023-08-12T10:36:08;1.83;;;1.83;;
12818;SDS011;6474;53.474;9.894;2023-08-12T10:38:36;1.60;;;1.60;;
12818;SDS011;6474;53.474;9.894;2023-08-12T10:41:14;2.15;;;2.05;;
12818;SDS011;6474;53.474;9.894;2023-08-12T10:43:52;2.30;;;2.20;;
12818;SDS011;6474;53.474;9.894;2023-08-12T10:46:22;2.45;;;2.35;;
12818;SDS011;6474;53.474;9.894;2023-08-12T10:48:57;2.40;;;2.20;;
12818;SDS011;6474;53.474;9.894;2023-08-12T10:51:39;2.13;;;2.03;;
12818;SDS011;6474;53.474;9.894;2023-08-12T10:54:20;2.22;;;2.13;;
12818;SDS011;6474;53.474;9.894;2023-08-12T10:57:04;1.98;;;1.98;;
12818;SDS011;6474;53.474;9.894;2023-08-12T11:02:28;2.40;;;2.30;;
12818;SDS011;6474;53.474;9.894;2023-08-12T11:05:00;2.40;;;1.90;;
12818;SDS011;6474;53.474;9.894;2023-08-12T11:07:33;2.10;;;2.00;;
12818;SDS011;6474;53.474;9.894;2023-08-12T11:10:06;2.22;;;2.13;;
12818;SDS011;6474;53.474;9.894;2023-08-12T11:12:38;1.90;;;1.90;;
12818;SDS011;6474;53.474;9.894;2023-08-12T11:15:09;2.10;;;1.83;;
12818;SDS011;6474;53.474;9.894;2023-08-12T11:17:38;2.20;;;2.10;;
12818;SDS011;6474;53.474;9.894;2023-08-12T11:20:08;2.28;;;2.17;;
12818;SDS011;6474;53.474;9.894;2023-08-12T11:22:38;1.83;;;1.83;;
12818;SDS011;6474;53.474;9.894;2023-08-12T11:25:08;1.77;;;1.77;;
12818;SDS011;6474;53.474;9.894;2023-08-12T11:27:40;1.92;;;1.92;;
12818;SDS011;6474;53.474;9.894;2023-08-12T11:30:12;1.88;;;1.85;;
12818;SDS011;6474;53.474;9.894;2023-08-12T11:32:41;3.67;;;2.17;;
12818;SDS011;6474;53.474;9.894;2023-08-12T11:35:10;1.88;;;1.88;;
12818;SDS011;6474;53.474;9.894;2023-08-12T11:37:40;1.88;;;1.88;;
12818;SDS011;6474;53.474;9.894;2023-08-12T11:40:09;2.08;;;1.98;;
12818;SDS011;6474;53.474;9.894;2023-08-12T11:42:41;2.70;;;2.50;;
12818;SDS011;6474;53.474;9.894;2023-08-12T11:45:12;3.63;;;2.50;;
12818;SDS011;6474;53.474;9.894;2023-08-12T11:47:41;2.10;;;2.00;;
12818;SDS011;6474;53.474;9.894;2023-08-12T11:50:10;2.00;;;1.90;;
12818;SDS011;6474;53.474;9.894;2023-08-12T11:52:39;1.92;;;1.92;;
12818;SDS011;6474;53.474;9.894;2023-08-12T11:55:08;2.30;;;2.15;;
12818;SDS011;6474;53.474;9.894;2023-08-12T11:57:36;2.25;;;2.10;;
12818;SDS011;6474;53.474;9.894;2023-08-12T12:00:08;7.18;;;2.95;;
12818;SDS011;6474;53.474;9.894;2023-08-12T12:02:45;2.10;;;2.00;;
12818;SDS011;6474;53.474;9.894;2023-08-12T12:05:15;2.40;;;2.35;;
12818;SDS011;6474;53.474;9.894;2023-08-12T12:07:47;2.20;;;2.13;;
12818;SDS011;6474;53.474;9.894;2023-08-12T12:10:17;2.38;;;2.28;;
12818;SDS011;6474;53.474;9.894;2023-08-12T12:12:46;3.22;;;2.97;;
12818;SDS011;6474;53.474;9.894;2023-08-12T12:15:15;2.42;;;2.33;;
12818;SDS011;6474;53.474;9.894;2023-08-12T12:17:46;2.75;;;2.55;;
12818;SDS011;6474;53.474;9.894;2023-08-12T12:20:15;4.63;;;2.30;;
12818;SDS011;6474;53.474;9.894;2023-08-12T12:22:43;2.38;;;2.28;;
12818;SDS011;6474;53.474;9.894;2023-08-12T12:25:13;2.40;;;2.30;;
12818;SDS011;6474;53.474;9.894;2023-08-12T12:27:42;2.30;;;2.20;;
12818;SDS011;6474;53.474;9.894;2023-08-12T12:30:13;2.03;;;2.03;;
12818;SDS011;6474;53.474;9.894;2023-08-12T12:32:42;2.50;;;2.42;;
12818;SDS011;6474;53.474;9.894;2023-08-12T12:35:12;1.80;;;1.80;;
12818;SDS011;6474;53.474;9.894;2023-08-12T12:37:40;2.65;;;2.45;;
12818;SDS011;6474;53.474;9.894;2023-08-12T12:40:09;2.45;;;2.45;;
12818;SDS011;6474;53.474;9.894;2023-08-12T12:42:38;2.30;;;2.20;;
12818;SDS011;6474;53.474;9.894;2023-08-12T12:45:06;2.90;;;2.33;;
12818;SDS011;6474;53.474;9.894;2023-08-12T12:47:35;2.33;;;2.22;;
12818;SDS011;6474;53.474;9.894;2023-08-12T12:50:04;2.17;;;2.10;;
12818;SDS011;6474;53.474;9.894;2023-08-12T12:52:34;2.05;;;2.05;;
12818;SDS011;6474;53.474;9.894;2023-08-12T12:55:02;2.58;;;2.47;;
12818;SDS011;6474;53.474;9.894;2023-08-12T12:57:31;2.78;;;2.67;;
12818;SDS011;6474;53.474;9.894;2023-08-12T12:59:59;2.38;;;2.35;;
12818;SDS011;6474;53.474;9.894;2023-08-12T13:02:27;2.22;;;2.13;;
12818;SDS011;6474;53.474;9.894;2023-08-12T13:04:55;2.22;;;2.20;;
12818;SDS011;6474;53.474;9.894;2023-08-12T13:07:23;2.58;;;2.58;;
12818;SDS011;6474;53.474;9.894;2023-08-12T13:09:52;3.65;;;2.60;;
12818;SDS011;6474;53.474;9.894;2023-08-12T13:12:20;2.33;;;2.22;;
12818;SDS011;6474;53.474;9.894;2023-08-12T13:14:48;2.58;;;2.47;;
12818;SDS011;6474;53.474;9.894;2023-08-12T13:17:16;3.55;;;3.03;;
12818;SDS011;6474;53.474;9.894;2023-08-12T13:19:43;4.30;;;3.88;;
12818;SDS011;6474;53.474;9.894;2023-08-12T13:22:11;2.70;;;2.60;;
12818;SDS011;6474;53.474;9.894;2023-08-12T13:24:39;3.17;;;2.97;;
12818;SDS011;6474;53.474;9.894;2023-08-12T13:27:09;2.25;;;2.15;;
12818;SDS011;6474;53.474;9.894;2023-08-12T13:29:37;2.70;;;2.60;;
12818;SDS011;6474;53.474;9.894;2023-08-12T13:34:55;2.40;;;2.30;;
12818;SDS011;6474;53.474;9.894;2023-08-12T13:37:23;2.53;;;2.42;;
12818;SDS011;6474;53.474;9.894;2023-08-12T13:39:51;2.13;;;2.00;;
12818;SDS011;6474;53.474;9.894;2023-08-12T13:42:21;2.00;;;2.00;;
12818;SDS011;6474;53.474;9.894;2023-08-12T13:44:49;2.20;;;2.10;;
12818;SDS011;6474;53.474;9.894;2023-08-12T13:47:17;2.33;;;2.25;;
12818;SDS011;6474;53.474;9.894;2023-08-12T13:49:45;2.60;;;2.53;;
12818;SDS011;6474;53.474;9.894;2023-08-12T13:52:13;2.17;;;2.17;;
12818;SDS011;6474;53.474;9.894;2023-08-12T13:54:43;2.78;;;2.25;;
12818;SDS011;6474;53.474;9.894;2023-08-12T13:57:11;2.35;;;2.33;;
12818;SDS011;6474;53.474;9.894;2023-08-12T13:59:52;2.50;;;2.47;;
12818;SDS011;6474;53.474;9.894;2023-08-12T14:02:36;2.20;;;2.20;;
12818;SDS011;6474;53.474;9.894;2023-08-12T14:05:04;2.53;;;2.45;;
12818;SDS011;6474;53.474;9.894;2023-08-12T14:07:33;2.80;;;2.70;;
12818;SDS011;6474;53.474;9.894;2023-08-12T14:10:03;2.65;;;2.55;;
12818;SDS011;6474;53.474;9.894;2023-08-12T14:12:32;3.42;;;3.25;;
12818;SDS011;6474;53.474;9.894;2023-08-12T14:15:01;3.38;;;3.03;;
12818;SDS011;6474;53.474;9.894;2023-08-12T14:17:29;3.55;;;3.25;;
12818;SDS011;6474;53.474;9.894;2023-08-12T14:19:57;3.80;;;3.60;;
12818;SDS011;6474;53.474;9.894;2023-08-12T14:22:26;3.03;;;2.90;;
12818;SDS011;6474;53.474;9.894;2023-08-12T14:24:55;3.17;;;3.05;;
12818;SDS011;6474;53.474;9.894;2023-08-12T14:27:26;2.90;;;2.80;;
12818;SDS011;6474;53.474;9.894;2023-08-12T14:29:54;4.00;;;3.80;;
12818;SDS011;6474;53.474;9.894;2023-08-12T14:32:23;5.05;;;3.13;;
12818;SDS011;6474;53.474;9.894;2023-08-12T14:34:51;2.85;;;2.72;;
12818;SDS011;6474;53.474;9.894;2023-08-12T14:37:21;2.88;;;2.78;;
12818;SDS011;6474;53.474;9.894;2023-08-12T14:39:52;3.33;;;3.03;;
12818;SDS011;6474;53.474;9.894;2023-08-12T14:42:21;3.50;;;3.30;;
12818;SDS011;6474;53.474;9.894;2023-08-12T14:44:48;3.50;;;3.20;;
12818;SDS011;6474;53.474;9.894;2023-08-12T14:47:17;3.60;;;3.20;;
12818;SDS011;6474;53.474;9.894;2023-08-12T14:49:46;4.13;;;3.83;;
12818;SDS011;6474;53.474;9.894;2023-08-12T14:52:16;3.42;;;3.13;;
12818;SDS011;6474;53.474;9.894;2023-08-12T14:54:45;3.65;;;3.45;;
12818;SDS011;6474;53.474;9.894;2023-08-12T14:57:14;3.65;;;3.45;;
12818;SDS011;6474;53.474;9.894;2023-08-12T14:59:42;3.17;;;3.08;;
12818;SDS011;6474;53.474;9.894;2023-08-12T15:02:10;3.45;;;3.33;;
12818;SDS011;6474;53.474;9.894;2023-08-12T15:04:38;3.45;;;3.25;;
12818;SDS011;6474;53.474;9.894;2023-08-12T15:07:08;5.13;;;3.55;;
12818;SDS011;6474;53.474;9.894;2023-08-12T15:09:36;3.15;;;3.05;;
12818;SDS011;6474;53.474;9.894;2023-08-12T15:12:05;3.28;;;3.17;;
12818;SDS011;6474;53.474;9.894;2023-08-12T15:14:33;3.70;;;3.38;;
12818;SDS011;6474;53.474;9.894;2023-08-12T15:17:01;3.05;;;2.95;;